Time;durP1;ratioP1;P1;durP2;ratioP2;P2;SDS_P1;SDS_P2;PMS_P1;PMS_P2;Temp;Humidity;BMP_temperature;BMP_pressure;BME280_temperature;BME280_humidity;BME280_pressure;Samples;Min_cycle;Max_cycle;Signal;HPM_P1;HPM_P2
2023/12/22 00:01:41;;;;;;;5.50;1.13;;;7.20;99.90;;;;;;5092917;28;20032;-67
2023/12/22 00:04:06;;;;;;;9.07;1.30;;;7.20;99.90;;;;;;5093150;28;20017;-67
2023/12/22 00:06:32;;;;;;;9.45;0.90;;;7.20;99.90;;;;;;5093155;28;20489;-67
2023/12/22 00:08:58;;;;;;;6.38;1.27;;;7.30;99.90;;;;;;5093042;28;20051;-66
2023/12/22 00:11:24;;;;;;;8.23;1.10;;;7.30;99.90;;;;;;5093144;28;20029;-66
2023/12/22 00:13:49;;;;;;;4.60;0.82;;;7.20;99.90;;;;;;5093031;28;20024;-65
2023/12/22 00:16:15;;;;;;;5.55;0.80;;;7.30;99.90;;;;;;5092737;28;20441;-66
2023/12/22 00:18:40;;;;;;;12.63;1.83;;;7.30;99.90;;;;;;5092774;28;20029;-67
2023/12/22 00:21:10;;;;;;;5.60;0.90;;;7.30;99.90;;;;;;5092718;28;20047;-67
2023/12/22 00:23:37;;;;;;;5.18;1.15;;;7.30;99.90;;;;;;5092875;28;20016;-67
2023/12/22 00:26:03;;;;;;;5.50;1.00;;;7.30;99.90;;;;;;5092773;28;20028;-65
2023/12/22 00:28:29;;;;;;;8.82;1.02;;;7.30;99.90;;;;;;5092678;28;20025;-67
2023/12/22 00:30:55;;;;;;;8.40;0.77;;;7.30;99.90;;;;;;5092447;28;20059;-66
2023/12/22 00:33:20;;;;;;;8.73;0.73;;;7.30;99.90;;;;;;5092740;28;20028;-67
2023/12/22 00:35:46;;;;;;;3.08;0.65;;;7.30;99.90;;;;;;5092731;28;20044;-66
2023/12/22 00:38:12;;;;;;;2.95;0.75;;;7.30;99.90;;;;;;5092650;28;20050;-66
2023/12/22 00:40:37;;;;;;;6.68;1.40;;;7.30;99.90;;;;;;5092506;28;20483;-66
2023/12/22 00:43:03;;;;;;;5.70;1.05;;;7.30;99.90;;;;;;5092616;28;20036;-67
2023/12/22 00:45:28;;;;;;;3.58;0.88;;;7.30;99.90;;;;;;5092424;28;20032;-66
2023/12/22 00:47:54;;;;;;;9.25;1.42;;;7.20;99.90;;;;;;5092529;28;20035;-66
2023/12/22 00:50:20;;;;;;;5.03;1.38;;;7.20;99.90;;;;;;5092532;28;20028;-67
2023/12/22 00:52:45;;;;;;;3.88;0.63;;;7.20;99.90;;;;;;5092138;28;20141;-66
2023/12/22 00:55:11;;;;;;;8.05;1.10;;;7.20;99.90;;;;;;5092375;28;20050;-66
2023/12/22 00:57:36;;;;;;;5.07;0.70;;;7.20;99.90;;;;;;5091329;28;20036;-67
2023/12/22 01:00:04;;;;;;;7.07;0.98;;;7.20;99.90;;;;;;5091947;28;20040;-66
2023/12/22 01:02:30;;;;;;;6.60;1.05;;;7.20;99.90;;;;;;5092349;28;20017;-65
2023/12/22 01:04:55;;;;;;;6.63;1.10;;;7.30;99.90;;;;;;5092322;28;20032;-66
2023/12/22 01:07:21;;;;;;;5.70;0.85;;;7.30;99.90;;;;;;5092250;28;20028;-66
2023/12/22 01:09:47;;;;;;;6.28;1.00;;;7.30;99.90;;;;;;5092234;28;20082;-66
2023/12/22 01:12:12;;;;;;;8.68;1.10;;;7.20;99.90;;;;;;5092145;28;20036;-68
2023/12/22 01:14:38;;;;;;;9.25;1.23;;;7.20;99.90;;;;;;5092076;28;20107;-66
2023/12/22 01:17:03;;;;;;;6.80;0.98;;;7.30;99.90;;;;;;5092208;28;20032;-67
2023/12/22 01:19:29;;;;;;;10.20;1.20;;;7.30;99.90;;;;;;5092131;28;20058;-66
2023/12/22 01:21:54;;;;;;;8.20;1.10;;;7.20;99.90;;;;;;5092137;28;20029;-67
2023/12/22 01:24:20;;;;;;;11.80;0.88;;;7.20;99.90;;;;;;5092117;28;20048;-66
2023/12/22 01:26:46;;;;;;;7.15;1.60;;;7.30;99.90;;;;;;5091985;28;20067;-68
2023/12/22 01:29:11;;;;;;;8.20;0.82;;;7.30;99.90;;;;;;5091967;28;20052;-67
2023/12/22 01:31:37;;;;;;;7.18;1.00;;;7.40;99.90;;;;;;5091853;28;20025;-67
2023/12/22 01:34:02;;;;;;;5.60;1.30;;;7.40;99.90;;;;;;5092033;28;20044;-67
2023/12/22 01:36:28;;;;;;;10.45;1.90;;;7.40;99.90;;;;;;5092029;28;20025;-66
2023/12/22 01:38:53;;;;;;;7.38;0.90;;;7.40;99.90;;;;;;5091846;28;20029;-67
2023/12/22 01:41:19;;;;;;;5.85;1.13;;;7.50;99.90;;;;;;5092009;28;20029;-66
2023/12/22 01:43:45;;;;;;;4.60;1.30;;;7.40;99.90;;;;;;5091867;28;20025;-67
2023/12/22 01:46:11;;;;;;;7.68;0.82;;;7.30;99.90;;;;;;5092015;28;20027;-66
2023/12/22 01:48:38;;;;;;;8.52;1.25;;;7.30;99.90;;;;;;5091985;28;20060;-66
2023/12/22 01:51:06;;;;;;;4.45;0.98;;;7.20;99.90;;;;;;5091984;28;20520;-67
2023/12/22 01:53:32;;;;;;;9.05;1.92;;;7.10;99.90;;;;;;5091726;28;20075;-67
2023/12/22 01:55:59;;;;;;;6.18;1.20;;;7.10;99.90;;;;;;5090963;28;20021;-67
2023/12/22 01:58:26;;;;;;;3.10;0.50;;;7.10;99.90;;;;;;5091683;28;20060;-67
2023/12/22 02:00:53;;;;;;;4.05;0.95;;;7.10;99.90;;;;;;5091554;28;20036;-67
2023/12/22 02:03:19;;;;;;;4.22;0.95;;;7.10;99.90;;;;;;5091702;28;20121;-66
2023/12/22 02:05:46;;;;;;;5.65;0.95;;;6.90;99.90;;;;;;5091777;28;20021;-67
2023/12/22 02:08:11;;;;;;;6.85;1.08;;;6.90;99.90;;;;;;5092460;28;20035;-67
2023/12/22 02:10:37;;;;;;;5.80;1.30;;;6.90;99.90;;;;;;5095414;28;20084;-68
2023/12/22 02:13:06;;;;;;;8.25;1.23;;;6.90;99.90;;;;;;5095243;28;20028;-67
2023/12/22 02:15:33;;;;;;;6.70;1.20;;;6.90;99.90;;;;;;5095254;28;20084;-68
2023/12/22 02:18:14;;;;;;;8.82;1.15;;;6.90;99.90;;;;;;5095174;28;20032;-67
2023/12/22 02:20:40;;;;;;;4.70;0.60;;;7.00;99.90;;;;;;5095070;28;20020;-67
2023/12/22 02:23:06;;;;;;;3.50;1.00;;;6.90;99.90;;;;;;5095128;28;20036;-67
2023/12/22 02:25:31;;;;;;;6.72;1.63;;;6.90;99.90;;;;;;5095119;28;20029;-67
2023/12/22 02:28:24;;;;;;;5.03;0.75;;;6.90;99.90;;;;;;5094968;28;20039;-67
2023/12/22 02:30:55;;;;;;;7.82;1.10;;;6.80;99.90;;;;;;5092685;28;20051;-67
2023/12/22 02:33:23;;;;;;;3.40;0.97;;;6.80;99.90;;;;;;5094933;28;20029;-67
2023/12/22 02:35:50;;;;;;;10.35;1.52;;;6.80;99.90;;;;;;5094857;28;20277;-67
2023/12/22 02:38:16;;;;;;;7.18;0.98;;;6.70;99.90;;;;;;5094912;28;20039;-67
2023/12/22 02:40:43;;;;;;;7.28;1.30;;;6.70;99.90;;;;;;5094792;28;20021;-67
2023/12/22 02:43:09;;;;;;;2.58;0.63;;;6.70;99.90;;;;;;5094691;28;20021;-67
2023/12/22 02:45:35;;;;;;;3.58;0.70;;;6.70;99.90;;;;;;5094778;28;20046;-67
2023/12/22 02:48:00;;;;;;;10.57;1.30;;;6.70;99.90;;;;;;5094689;28;20044;-67
2023/12/22 02:50:26;;;;;;;5.30;1.00;;;6.70;99.90;;;;;;5094648;28;20042;-67
2023/12/22 02:52:51;;;;;;;7.63;1.65;;;6.70;99.90;;;;;;5094501;28;20044;-67
2023/12/22 02:55:17;;;;;;;7.68;1.08;;;6.70;99.90;;;;;;5094561;28;20376;-67
2023/12/22 02:57:43;;;;;;;12.10;1.67;;;6.70;99.90;;;;;;5094400;28;20035;-67
2023/12/22 03:00:09;;;;;;;9.23;1.45;;;6.80;99.90;;;;;;5094092;28;20114;-67
2023/12/22 03:02:34;;;;;;;14.60;1.48;;;6.80;99.90;;;;;;5094475;28;20031;-67
2023/12/22 03:05:00;;;;;;;17.42;1.55;;;6.90;99.90;;;;;;5094416;28;20020;-66
2023/12/22 03:07:26;;;;;;;8.73;1.40;;;6.90;99.90;;;;;;5094403;28;20031;-66
2023/12/22 03:09:51;;;;;;;11.38;1.30;;;6.90;99.90;;;;;;5094213;28;20033;-66
2023/12/22 03:12:17;;;;;;;12.75;1.20;;;7.00;99.90;;;;;;5094225;28;20074;-66
2023/12/22 03:14:42;;;;;;;7.35;2.05;;;7.10;99.90;;;;;;5094191;28;20064;-67
2023/12/22 03:17:09;;;;;;;11.07;1.73;;;7.20;99.90;;;;;;5094121;28;20052;-66
2023/12/22 03:19:35;;;;;;;11.05;1.25;;;7.30;99.90;;;;;;5093146;28;20041;-67
2023/12/22 03:22:01;;;;;;;11.32;1.10;;;7.40;99.90;;;;;;5093799;28;20048;-69
2023/12/22 03:24:28;;;;;;;8.57;1.33;;;7.40;99.90;;;;;;5094005;28;20076;-66
2023/12/22 03:26:54;;;;;;;7.65;1.02;;;7.50;99.90;;;;;;5093876;28;20039;-67
2023/12/22 03:29:19;;;;;;;6.45;1.55;;;7.50;99.90;;;;;;5093874;28;20024;-67
2023/12/22 03:31:46;;;;;;;11.48;1.98;;;7.50;99.90;;;;;;5093609;28;20025;-67
2023/12/22 03:34:12;;;;;;;13.00;2.03;;;7.60;99.90;;;;;;5093766;28;20057;-66
2023/12/22 03:36:38;;;;;;;11.80;1.65;;;7.60;99.90;;;;;;5093719;28;20027;-68
2023/12/22 03:39:04;;;;;;;11.60;1.42;;;7.70;99.90;;;;;;5093626;28;20048;-67
2023/12/22 03:41:30;;;;;;;11.65;1.42;;;7.60;99.90;;;;;;5093564;28;20028;-66
2023/12/22 03:43:58;;;;;;;10.13;1.95;;;7.70;99.90;;;;;;5093506;28;20023;-66
2023/12/22 03:46:24;;;;;;;5.95;1.60;;;7.60;99.90;;;;;;5093459;28;20025;-66
2023/12/22 03:48:51;;;;;;;9.23;1.45;;;7.70;99.90;;;;;;5093323;28;20050;-66
2023/12/22 03:51:16;;;;;;;14.13;1.98;;;7.70;99.90;;;;;;5093407;28;20028;-67
2023/12/22 03:53:42;;;;;;;10.18;1.17;;;7.70;99.90;;;;;;5093259;28;20127;-66
2023/12/22 03:56:08;;;;;;;10.40;1.48;;;7.70;99.90;;;;;;5093383;28;20076;-66
2023/12/22 03:58:35;;;;;;;10.30;1.90;;;7.80;99.90;;;;;;5093148;28;20084;-65
2023/12/22 04:01:00;;;;;;;6.10;1.27;;;7.90;99.90;;;;;;5092972;28;20036;-66
2023/12/22 04:03:26;;;;;;;8.38;1.60;;;7.90;99.90;;;;;;5093068;28;20029;-67
2023/12/22 04:05:52;;;;;;;7.60;1.20;;;8.00;99.90;;;;;;5093151;28;20028;-66
2023/12/22 04:08:17;;;;;;;12.13;2.03;;;8.00;99.90;;;;;;5093069;28;20028;-66
2023/12/22 04:10:44;;;;;;;12.90;2.17;;;8.10;99.90;;;;;;5093059;28;20028;-66
2023/12/22 04:13:10;;;;;;;8.00;1.60;;;8.10;99.90;;;;;;5092918;28;20032;-66
2023/12/22 04:15:35;;;;;;;9.85;1.75;;;8.20;99.90;;;;;;5092812;28;20032;-66
2023/12/22 04:18:01;;;;;;;8.65;1.38;;;8.20;99.90;;;;;;5092762;28;20027;-66
2023/12/22 04:20:27;;;;;;;9.15;1.60;;;8.30;99.90;;;;;;5092720;28;20398;-67
2023/12/22 04:22:53;;;;;;;5.45;1.40;;;8.40;99.90;;;;;;5092831;28;20035;-65
2023/12/22 04:25:18;;;;;;;9.10;2.00;;;8.40;99.90;;;;;;5092762;28;20029;-67
2023/12/22 04:27:44;;;;;;;5.05;0.98;;;8.50;99.90;;;;;;5092654;28;20036;-66
2023/12/22 04:30:11;;;;;;;11.73;2.15;;;8.60;99.90;;;;;;5092521;28;20021;-67
2023/12/22 04:32:36;;;;;;;5.38;1.63;;;8.60;99.90;;;;;;5092392;28;20029;-67
2023/12/22 04:35:02;;;;;;;7.00;1.50;;;8.60;99.90;;;;;;5092719;28;20029;-66
2023/12/22 04:37:28;;;;;;;7.07;1.40;;;8.70;99.90;;;;;;5092609;28;20028;-66
2023/12/22 04:39:53;;;;;;;7.05;1.33;;;8.70;99.90;;;;;;5091563;28;20033;-65
2023/12/22 04:42:19;;;;;;;9.77;1.67;;;8.70;99.90;;;;;;5092396;28;20040;-66
2023/12/22 04:44:45;;;;;;;6.90;1.35;;;8.70;99.90;;;;;;5092548;28;20031;-66
2023/12/22 04:47:12;;;;;;;7.00;1.50;;;8.70;99.90;;;;;;5091388;28;20031;-67
2023/12/22 04:49:38;;;;;;;11.35;1.80;;;8.80;99.90;;;;;;5092469;28;20032;-66
2023/12/22 04:52:03;;;;;;;8.38;1.48;;;8.80;99.90;;;;;;5091406;28;20056;-66
2023/12/22 04:54:29;;;;;;;11.45;1.70;;;8.90;99.90;;;;;;5092051;28;20060;-66
2023/12/22 04:56:55;;;;;;;9.13;1.98;;;8.80;99.90;;;;;;5091083;28;20051;-66
2023/12/22 04:59:21;;;;;;;7.13;1.48;;;8.80;99.90;;;;;;5091873;28;20052;-66
2023/12/22 05:01:46;;;;;;;13.00;2.80;;;8.80;99.90;;;;;;5091882;28;20039;-66
2023/12/22 05:04:12;;;;;;;9.05;1.75;;;8.80;99.90;;;;;;5092051;28;20020;-66
2023/12/22 05:06:37;;;;;;;12.90;2.20;;;8.80;99.90;;;;;;5092099;28;20025;-67
2023/12/22 05:09:03;;;;;;;9.07;1.60;;;8.80;99.90;;;;;;5092098;28;20039;-67
2023/12/22 05:11:29;;;;;;;10.30;1.27;;;8.70;99.90;;;;;;5091979;28;20387;-67
2023/12/22 05:13:54;;;;;;;9.68;1.23;;;8.70;99.90;;;;;;5091854;28;20055;-67
2023/12/22 05:16:20;;;;;;;6.03;1.17;;;8.60;99.90;;;;;;5091603;28;20020;-66
2023/12/22 05:18:46;;;;;;;10.98;1.55;;;8.60;99.90;;;;;;5092062;28;20020;-66
2023/12/22 05:21:14;;;;;;;9.55;1.50;;;8.60;99.90;;;;;;5091952;28;20031;-66
2023/12/22 05:23:40;;;;;;;8.43;1.40;;;8.60;99.90;;;;;;5092133;28;20024;-66
2023/12/22 05:26:05;;;;;;;10.77;1.35;;;8.60;99.90;;;;;;5092053;28;20024;-66
2023/12/22 05:28:32;;;;;;;10.38;1.70;;;8.60;99.90;;;;;;5092014;28;20025;-65
2023/12/22 05:30:57;;;;;;;15.60;1.92;;;8.70;99.90;;;;;;5091870;28;20032;-66
2023/12/22 05:33:23;;;;;;;11.25;1.65;;;8.70;99.90;;;;;;5092000;28;20056;-66
2023/12/22 05:35:48;;;;;;;7.10;1.48;;;8.70;99.90;;;;;;5092059;28;20048;-67
2023/12/22 05:38:14;;;;;;;10.68;1.60;;;8.80;99.90;;;;;;5091903;28;20029;-66
2023/12/22 05:40:39;;;;;;;12.90;1.92;;;8.80;99.90;;;;;;5091839;28;20059;-67
2023/12/22 05:43:05;;;;;;;8.25;1.65;;;8.80;99.90;;;;;;5092406;28;20032;-66
2023/12/22 05:45:31;;;;;;;6.70;1.17;;;8.80;99.90;;;;;;5095666;28;20056;-66
2023/12/22 05:47:56;;;;;;;8.93;1.25;;;8.80;99.90;;;;;;5095775;28;20052;-65
2023/12/22 05:50:23;;;;;;;6.40;1.40;;;8.90;99.90;;;;;;5095694;28;20053;-67
2023/12/22 05:52:49;;;;;;;12.63;1.58;;;8.90;99.90;;;;;;5095397;28;20055;-66
2023/12/22 05:55:14;;;;;;;8.02;1.30;;;8.90;99.90;;;;;;5095622;28;20096;-66
2023/12/22 05:57:40;;;;;;;9.32;1.10;;;8.90;99.90;;;;;;5095403;28;20364;-66
2023/12/22 06:00:07;;;;;;;7.60;1.05;;;8.90;99.90;;;;;;5095246;28;20062;-67
2023/12/22 06:02:33;;;;;;;8.10;1.42;;;8.90;99.90;;;;;;5095504;28;20020;-67
2023/12/22 06:04:59;;;;;;;8.63;1.63;;;8.90;99.90;;;;;;5095426;28;20024;-66
2023/12/22 06:07:25;;;;;;;3.95;1.00;;;8.90;99.90;;;;;;5095419;28;20027;-66
2023/12/22 06:09:51;;;;;;;10.48;1.13;;;9.00;99.90;;;;;;5095284;28;20016;-66
2023/12/22 06:12:17;;;;;;;5.82;1.17;;;9.00;99.90;;;;;;5095203;28;20051;-67
2023/12/22 06:14:42;;;;;;;9.30;1.33;;;9.00;99.90;;;;;;5095090;28;20029;-68
2023/12/22 06:17:08;;;;;;;5.47;1.48;;;9.00;99.90;;;;;;5095179;28;20044;-66
2023/12/22 06:19:35;;;;;;;4.68;0.98;;;9.00;99.90;;;;;;5095019;28;20052;-66
2023/12/22 06:22:01;;;;;;;11.98;1.20;;;9.00;99.90;;;;;;5095110;28;20040;-66
2023/12/22 06:24:27;;;;;;;5.55;0.82;;;9.00;99.90;;;;;;5095014;28;20079;-66
2023/12/22 06:26:53;;;;;;;8.13;1.73;;;9.00;99.90;;;;;;5095034;28;20065;-66
2023/12/22 06:29:18;;;;;;;11.65;1.55;;;8.90;99.90;;;;;;5094956;28;20032;-66
2023/12/22 06:31:44;;;;;;;7.47;1.20;;;8.90;99.90;;;;;;5094720;28;20025;-67
2023/12/22 06:34:09;;;;;;;8.18;1.50;;;8.90;99.90;;;;;;5094861;28;20108;-66
2023/12/22 06:36:35;;;;;;;6.20;2.00;;;8.90;99.90;;;;;;5094754;28;20022;-66
2023/12/22 06:39:00;;;;;;;6.95;1.67;;;8.90;99.90;;;;;;5094664;28;20512;-65
2023/12/22 06:41:28;;;;;;;8.95;1.00;;;8.90;99.90;;;;;;5093700;28;20029;-65
2023/12/22 06:43:55;;;;;;;14.88;1.60;;;8.90;99.90;;;;;;5094579;28;20039;-66
2023/12/22 06:46:23;;;;;;;7.90;1.60;;;8.80;99.90;;;;;;5094675;28;20174;-66
2023/12/22 06:48:49;;;;;;;11.27;1.38;;;8.80;99.90;;;;;;5094616;28;20088;-67
2023/12/22 06:51:34;;;;;;;10.70;1.75;;;8.80;99.90;;;;;;5094580;28;20036;-66
2023/12/22 06:54:00;;;;;;;10.93;1.73;;;8.80;99.90;;;;;;5093981;28;20044;-65
2023/12/22 06:56:28;;;;;;;8.10;1.83;;;8.80;99.90;;;;;;5093466;28;20027;-66
2023/12/22 06:58:56;;;;;;;14.02;2.03;;;8.70;99.90;;;;;;5094342;28;20024;-65
2023/12/22 07:01:33;;;;;;;18.90;2.15;;;8.80;99.90;;;;;;5094088;28;20055;-66
2023/12/22 07:04:02;;;;;;;11.48;2.50;;;8.80;99.90;;;;;;5093969;28;20028;-66
2023/12/22 07:06:32;;;;;;;10.07;1.92;;;8.80;99.90;;;;;;5094244;28;20085;-67
2023/12/22 07:09:17;;;;;;;6.97;2.83;;;8.80;99.90;;;;;;5093203;28;20039;-66
2023/12/22 07:11:56;;;;;;;14.10;3.00;;;8.80;99.90;;;;;;5094208;28;20024;-65
2023/12/22 07:14:21;;;;;;;13.35;2.08;;;8.80;99.90;;;;;;5094131;28;20039;-66
2023/12/22 07:16:47;;;;;;;14.93;2.42;;;8.80;99.90;;;;;;5094142;28;20048;-66
2023/12/22 07:19:13;;;;;;;12.38;2.30;;;8.80;99.90;;;;;;5093839;28;20055;-65
2023/12/22 07:21:41;;;;;;;11.52;2.50;;;8.80;99.90;;;;;;5093948;28;20021;-66
2023/12/22 07:24:07;;;;;;;14.88;2.58;;;8.80;99.90;;;;;;5093938;28;20027;-67
2023/12/22 07:26:33;;;;;;;19.42;2.55;;;8.80;99.90;;;;;;5093868;28;20028;-67
2023/12/22 07:28:58;;;;;;;12.27;2.47;;;8.80;99.90;;;;;;5093810;28;20021;-66
2023/12/22 07:31:24;;;;;;;14.10;2.40;;;8.90;99.90;;;;;;5093676;28;20433;-66
2023/12/22 07:33:51;;;;;;;17.67;3.38;;;9.00;99.90;;;;;;5093656;28;20491;-65
2023/12/22 07:36:18;;;;;;;20.85;4.13;;;9.00;99.90;;;;;;5093741;28;20025;-66
2023/12/22 07:38:44;;;;;;;20.08;3.20;;;9.00;99.90;;;;;;5093710;28;20020;-67
2023/12/22 07:41:09;;;;;;;19.40;2.97;;;9.10;99.90;;;;;;5093505;28;20036;-66
2023/12/22 07:43:35;;;;;;;15.77;2.67;;;9.10;99.90;;;;;;5093427;28;20032;-66
2023/12/22 07:46:01;;;;;;;16.33;3.20;;;9.10;99.90;;;;;;5093407;28;20029;-67
2023/12/22 07:48:26;;;;;;;15.88;2.72;;;9.10;99.90;;;;;;5093276;28;20032;-66
2023/12/22 07:50:52;;;;;;;18.52;2.78;;;9.10;99.90;;;;;;5093302;28;20024;-66
2023/12/22 07:53:17;;;;;;;19.98;3.05;;;9.20;99.90;;;;;;5093126;28;20041;-66
2023/12/22 07:55:43;;;;;;;22.13;3.30;;;9.20;99.90;;;;;;5093334;28;20024;-65
2023/12/22 07:58:09;;;;;;;25.38;5.70;;;9.20;99.90;;;;;;5093222;28;20081;-67
2023/12/22 08:00:35;;;;;;;19.90;3.53;;;9.30;99.90;;;;;;5092925;28;20032;-66
2023/12/22 08:03:01;;;;;;;16.30;3.08;;;9.30;99.90;;;;;;5093082;28;20095;-66
2023/12/22 08:05:27;;;;;;;14.40;2.85;;;9.40;99.90;;;;;;5093085;28;20032;-66
2023/12/22 08:07:52;;;;;;;18.33;3.20;;;9.40;99.90;;;;;;5092787;28;20020;-66
2023/12/22 08:10:19;;;;;;;18.98;3.08;;;9.40;99.90;;;;;;5093014;28;20055;-66
2023/12/22 08:12:44;;;;;;;14.27;3.13;;;9.40;99.90;;;;;;5092980;28;20031;-66
2023/12/22 08:15:10;;;;;;;13.68;2.67;;;9.50;99.90;;;;;;5092969;28;20199;-68
2023/12/22 08:17:37;;;;;;;18.83;2.92;;;9.50;99.90;;;;;;5092831;28;20054;-68
2023/12/22 08:20:04;;;;;;;16.77;3.30;;;9.50;99.90;;;;;;5092703;28;20035;-70
2023/12/22 08:22:29;;;;;;;22.35;3.47;;;9.60;99.90;;;;;;5092829;28;20021;-66
2023/12/22 08:24:55;;;;;;;17.85;2.47;;;9.60;99.90;;;;;;5092741;28;20027;-66
2023/12/22 08:27:20;;;;;;;13.30;2.78;;;9.60;99.90;;;;;;5092652;28;20493;-67
2023/12/22 08:29:46;;;;;;;15.75;4.38;;;9.60;99.90;;;;;;5092697;28;20037;-66
2023/12/22 08:32:12;;;;;;;16.63;3.00;;;9.60;99.90;;;;;;5092285;28;20043;-66
2023/12/22 08:34:38;;;;;;;15.55;2.28;;;9.70;99.90;;;;;;5092625;28;20029;-65
2023/12/22 08:37:03;;;;;;;16.75;2.92;;;9.70;99.90;;;;;;5092564;28;20039;-67
2023/12/22 08:39:29;;;;;;;13.35;1.95;;;9.70;99.90;;;;;;5101156;28;20032;-66
2023/12/22 08:41:55;;;;;;;16.75;2.38;;;9.70;99.90;;;;;;5110851;28;20032;-65
2023/12/22 08:44:20;;;;;;;15.77;2.28;;;9.70;99.90;;;;;;5092604;28;20103;-66
2023/12/22 08:46:46;;;;;;;13.38;2.60;;;9.70;99.90;;;;;;5111436;28;20032;-65
2023/12/22 08:49:12;;;;;;;17.73;2.25;;;9.60;99.90;;;;;;5110574;28;20027;-65
2023/12/22 08:51:37;;;;;;;9.95;2.15;;;9.60;99.90;;;;;;5111939;28;20028;-65
2023/12/22 08:54:05;;;;;;;15.07;2.38;;;9.60;99.90;;;;;;5111923;28;20044;-67
2023/12/22 08:56:31;;;;;;;11.25;2.20;;;9.60;99.90;;;;;;5112252;28;20082;-66
2023/12/22 08:58:59;;;;;;;10.00;2.10;;;9.60;99.90;;;;;;5112435;28;20043;-67
2023/12/22 09:01:25;;;;;;;9.18;2.08;;;9.60;99.90;;;;;;5112263;28;20031;-66
2023/12/22 09:03:52;;;;;;;8.70;1.98;;;9.60;99.90;;;;;;5112552;28;20031;-64
2023/12/22 09:06:20;;;;;;;9.05;1.95;;;9.60;99.90;;;;;;5111567;28;20028;-68
2023/12/22 09:08:46;;;;;;;12.80;1.92;;;9.60;99.90;;;;;;5112470;28;20047;-65
2023/12/22 09:11:13;;;;;;;8.32;2.15;;;9.70;99.90;;;;;;5112575;28;20032;-68
2023/12/22 09:13:39;;;;;;;6.97;1.98;;;9.70;99.90;;;;;;5112355;28;20032;-66
2023/12/22 09:16:05;;;;;;;6.75;1.70;;;9.70;99.90;;;;;;5112467;28;20036;-65
2023/12/22 09:18:31;;;;;;;12.63;1.90;;;9.80;99.90;;;;;;5113865;28;20412;-66
2023/12/22 09:20:57;;;;;;;6.10;1.67;;;9.90;99.90;;;;;;5116506;28;20525;-67
2023/12/22 09:23:23;;;;;;;9.98;1.45;;;10.00;99.90;;;;;;5116545;28;20028;-65
2023/12/22 09:25:49;;;;;;;9.05;1.92;;;9.90;99.90;;;;;;5116511;28;20040;-66
2023/12/22 09:28:14;;;;;;;8.07;1.80;;;9.90;99.90;;;;;;5116227;28;20028;-66
2023/12/22 09:30:41;;;;;;;10.95;1.92;;;9.90;99.90;;;;;;5114941;28;20052;-66
2023/12/22 09:33:07;;;;;;;8.00;1.77;;;9.90;99.90;;;;;;5116444;28;20105;-69
2023/12/22 09:35:33;;;;;;;6.07;1.70;;;9.90;99.90;;;;;;5116536;28;20020;-67
2023/12/22 09:37:59;;;;;;;7.35;2.00;;;9.90;99.90;;;;;;5116256;28;20032;-66
2023/12/22 09:40:24;;;;;;;3.47;1.15;;;9.90;99.90;;;;;;5115856;28;20084;-66
2023/12/22 09:42:53;;;;;;;4.63;1.88;;;10.00;99.90;;;;;;5115099;28;20079;-67
2023/12/22 09:45:20;;;;;;;5.72;1.08;;;9.90;99.90;;;;;;5115530;28;20012;-66
2023/12/22 09:47:47;;;;;;;5.82;2.33;;;10.00;99.90;;;;;;5115931;28;20016;-66
2023/12/22 09:50:13;;;;;;;5.47;1.20;;;9.90;99.90;;;;;;5116154;28;20032;-66
2023/12/22 09:52:41;;;;;;;5.25;1.30;;;9.80;99.90;;;;;;5114880;28;20020;-67
2023/12/22 09:55:09;;;;;;;3.10;1.00;;;9.70;99.90;;;;;;5115169;28;20063;-66
2023/12/22 09:57:37;;;;;;;6.18;1.25;;;9.60;99.90;;;;;;5115813;28;20028;-65
2023/12/22 10:00:06;;;;;;;3.80;1.90;;;9.60;99.90;;;;;;5115579;28;20042;-66
2023/12/22 10:02:33;;;;;;;5.82;1.80;;;9.60;99.90;;;;;;5115772;28;20124;-67
2023/12/22 10:04:58;;;;;;;5.57;1.27;;;9.60;99.90;;;;;;5115885;28;20047;-67
2023/12/22 10:07:25;;;;;;;3.78;1.40;;;9.70;99.90;;;;;;5115712;28;20024;-67
2023/12/22 10:09:53;;;;;;;4.95;1.50;;;9.80;99.90;;;;;;5115698;28;20026;-66
2023/12/22 10:12:19;;;;;;;4.28;1.15;;;9.80;99.90;;;;;;5115681;28;20028;-66
2023/12/22 10:14:49;;;;;;;4.50;1.05;;;9.90;99.90;;;;;;5115664;28;20040;-67
2023/12/22 10:17:16;;;;;;;4.32;1.10;;;9.90;99.90;;;;;;5115526;28;20055;-69
2023/12/22 10:19:42;;;;;;;3.28;1.17;;;10.00;99.90;;;;;;5115287;28;20020;-66
2023/12/22 10:22:08;;;;;;;9.52;1.10;;;10.10;99.90;;;;;;5115341;28;20388;-66
2023/12/22 10:24:38;;;;;;;5.15;1.05;;;10.10;99.90;;;;;;5115396;28;20374;-67
2023/12/22 10:27:05;;;;;;;4.72;1.05;;;10.10;99.90;;;;;;5115317;28;20035;-67
2023/12/22 10:29:30;;;;;;;6.45;1.33;;;10.20;99.90;;;;;;5115025;28;20024;-67
2023/12/22 10:31:56;;;;;;;8.45;1.27;;;10.20;99.90;;;;;;5115020;28;20051;-66
2023/12/22 10:34:22;;;;;;;6.65;1.35;;;10.30;99.90;;;;;;5115131;28;20032;-66
2023/12/22 10:36:47;;;;;;;5.50;0.65;;;10.30;99.90;;;;;;5115219;28;20831;-67
2023/12/22 10:39:13;;;;;;;4.80;1.10;;;10.30;99.90;;;;;;5114965;28;20034;-66
2023/12/22 10:41:38;;;;;;;2.53;1.00;;;10.40;99.90;;;;;;5115033;28;20025;-66
2023/12/22 10:44:04;;;;;;;4.07;1.10;;;10.40;99.90;;;;;;5115002;28;20032;-69
2023/12/22 10:46:35;;;;;;;3.15;1.33;;;10.40;99.90;;;;;;5115027;28;20078;-69
2023/12/22 10:49:02;;;;;;;2.85;1.00;;;10.50;99.90;;;;;;5114911;28;20020;-65
2023/12/22 10:51:32;;;;;;;2.97;0.88;;;10.50;99.90;;;;;;5114924;28;20030;-65
2023/12/22 10:53:57;;;;;;;4.15;0.95;;;10.50;99.90;;;;;;5114708;28;20067;-66
2023/12/22 10:56:24;;;;;;;4.07;1.08;;;10.60;99.90;;;;;;5114791;28;20032;-67
2023/12/22 10:58:52;;;;;;;2.55;0.98;;;10.60;99.90;;;;;;5114779;28;20028;-67
2023/12/22 11:01:20;;;;;;;1.90;1.20;;;10.60;99.90;;;;;;5114457;28;20032;-66
2023/12/22 11:03:50;;;;;;;3.33;0.80;;;10.70;99.90;;;;;;5114753;28;20016;-67
2023/12/22 11:06:16;;;;;;;2.40;0.80;;;10.70;99.90;;;;;;5114583;28;20035;-66
2023/12/22 11:08:43;;;;;;;3.63;1.02;;;10.70;99.90;;;;;;5114528;28;20020;-66
2023/12/22 11:11:30;;;;;;;4.07;0.82;;;10.70;99.90;;;;;;5114556;28;20024;-67
2023/12/22 11:14:00;;;;;;;3.30;0.88;;;10.70;99.90;;;;;;5114481;28;20020;-66
2023/12/22 11:16:28;;;;;;;4.28;1.00;;;10.70;99.90;;;;;;5114523;28;20024;-67
2023/12/22 11:18:55;;;;;;;2.90;0.77;;;10.80;99.90;;;;;;5114257;28;20042;-68
2023/12/22 11:21:24;;;;;;;2.67;0.95;;;10.80;99.90;;;;;;5114289;28;20044;-68
2023/12/22 11:23:51;;;;;;;4.32;1.00;;;10.80;99.90;;;;;;5114242;28;20031;-65
2023/12/22 11:26:22;;;;;;;1.85;0.70;;;10.90;99.90;;;;;;5114216;28;20069;-67
2023/12/22 11:28:49;;;;;;;5.75;1.17;;;10.90;99.90;;;;;;5114042;28;20043;-70
2023/12/22 11:31:15;;;;;;;3.45;1.00;;;10.90;99.90;;;;;;5099928;28;20047;-70
2023/12/22 11:33:50;;;;;;;3.35;0.90;;;10.90;99.90;;;;;;5111875;28;20023;-66
2023/12/22 11:36:17;;;;;;;2.75;0.82;;;11.00;99.90;;;;;;5113958;28;20020;-66
2023/12/22 11:38:45;;;;;;;2.10;1.00;;;11.00;99.90;;;;;;5113204;28;20567;-65
2023/12/22 11:41:18;;;;;;;4.00;0.93;;;11.00;99.90;;;;;;5112917;28;20027;-67
2023/12/22 11:43:45;;;;;;;3.15;1.05;;;11.00;99.90;;;;;;5113887;28;20020;-66
2023/12/22 11:46:11;;;;;;;4.70;1.25;;;11.00;99.90;;;;;;5109764;28;20024;-67
2023/12/22 11:48:37;;;;;;;4.00;1.55;;;11.00;99.90;;;;;;5107106;28;20024;-67
2023/12/22 11:51:15;;;;;;;3.25;0.93;;;11.00;99.90;;;;;;5110424;28;20028;-66
2023/12/22 11:53:41;;;;;;;4.88;0.98;;;11.00;99.90;;;;;;5103814;28;20044;-67
2023/12/22 11:56:08;;;;;;;2.53;0.77;;;11.00;99.90;;;;;;5099846;28;20076;-67
2023/12/22 11:58:41;;;;;;;7.97;1.17;;;11.10;99.90;;;;;;5102707;28;20024;-67
2023/12/22 12:01:11;;;;;;;3.63;1.00;;;11.10;99.90;;;;;;5101112;28;20038;-67
2023/12/22 12:03:41;;;;;;;5.05;1.13;;;11.20;99.90;;;;;;5102519;28;20022;-68
2023/12/22 12:06:25;;;;;;;4.47;1.27;;;11.20;99.90;;;;;;5100796;28;20025;-68
2023/12/22 12:08:51;;;;;;;3.08;1.27;;;11.10;99.90;;;;;;5102492;28;20027;-69
2023/12/22 12:11:20;;;;;;;3.53;0.80;;;11.10;99.90;;;;;;5111612;28;20027;-68
2023/12/22 12:13:47;;;;;;;5.68;1.52;;;11.10;99.90;;;;;;5104683;28;20062;-69
2023/12/22 12:16:15;;;;;;;6.40;0.88;;;11.10;99.90;;;;;;5101113;28;20024;-68
2023/12/22 12:18:41;;;;;;;7.68;1.40;;;11.10;99.90;;;;;;5105636;28;20046;-68
2023/12/22 12:21:11;;;;;;;2.97;0.82;;;11.20;99.90;;;;;;5113100;28;20028;-68
2023/12/22 12:23:37;;;;;;;2.00;1.00;;;11.20;99.90;;;;;;5112891;28;20027;-67
2023/12/22 12:26:03;;;;;;;5.25;0.98;;;11.20;99.90;;;;;;5110602;28;20035;-66
2023/12/22 12:28:30;;;;;;;2.75;0.95;;;11.10;99.90;;;;;;5102322;28;20032;-69
2023/12/22 12:31:02;;;;;;;5.72;1.20;;;11.10;99.90;;;;;;5095869;28;20078;-67
2023/12/22 12:33:28;;;;;;;2.77;1.17;;;11.20;99.90;;;;;;5092708;28;20024;-67
2023/12/22 12:35:57;;;;;;;3.28;1.00;;;11.20;99.90;;;;;;5092612;28;20024;-67
2023/12/22 12:38:49;;;;;;;5.38;1.40;;;11.20;99.90;;;;;;5092697;28;20477;-67
2023/12/22 12:41:15;;;;;;;4.25;1.45;;;11.20;99.90;;;;;;5092621;28;20052;-67
2023/12/22 12:43:43;;;;;;;3.50;0.85;;;11.20;99.90;;;;;;5092455;28;20028;-66
2023/12/22 12:46:09;;;;;;;3.63;1.02;;;11.20;99.90;;;;;;5092457;28;20042;-67
2023/12/22 12:48:34;;;;;;;3.25;0.75;;;11.10;99.90;;;;;;5092527;28;20028;-69
2023/12/22 12:51:04;;;;;;;5.10;1.08;;;11.10;99.90;;;;;;5092449;28;20085;-67